Time;durP1;ratioP1;P1;durP2;ratioP2;P2;SDS_P1;SDS_P2;PMS_P1;PMS_P2;Temp;Humidity;BMP_temperature;BMP_pressure;BME280_temperature;BME280_humidity;BME280_pressure;Samples;Min_cycle;Max_cycle;Signal;HPM_P1;HPM_P2
2021/06/07 00:00:57;;;;;;;24.07;21.20;;;18.60;99.90;;;;;;10499403;28;20227;-81
2021/06/07 00:06:00;;;;;;;23.00;20.63;;;18.60;99.90;;;;;;10502959;28;20243;-79
2021/06/07 00:11:03;;;;;;;22.90;20.50;;;18.60;99.90;;;;;;10484731;28;20228;-79
2021/06/07 00:16:05;;;;;;;25.93;21.00;;;18.60;99.90;;;;;;10492963;28;20272;-80
2021/06/07 00:21:11;;;;;;;22.37;19.40;;;18.60;99.90;;;;;;10485117;28;20577;-79
2021/06/07 00:26:13;;;;;;;28.27;21.77;;;18.60;99.90;;;;;;10476347;28;20208;-79
2021/06/07 00:31:15;;;;;;;27.47;22.07;;;18.60;99.90;;;;;;10498799;28;20251;-79
2021/06/07 00:36:20;;;;;;;26.37;21.03;;;18.60;99.90;;;;;;10493198;28;20204;-79
2021/06/07 00:41:23;;;;;;;24.30;19.90;;;18.60;99.90;;;;;;10497619;28;20220;-79
2021/06/07 00:46:25;;;;;;;26.80;21.70;;;18.60;99.90;;;;;;10498900;28;20554;-79
2021/06/07 00:51:28;;;;;;;24.23;21.47;;;18.60;99.90;;;;;;10494741;28;20225;-79
2021/06/07 00:56:30;;;;;;;24.90;21.60;;;18.60;99.90;;;;;;10495887;28;20220;-79
2021/06/07 01:01:32;;;;;;;21.37;18.87;;;18.60;99.90;;;;;;10479381;28;20295;-79
2021/06/07 01:06:36;;;;;;;22.23;19.50;;;18.60;99.90;;;;;;10495031;28;20208;-79
2021/06/07 01:11:38;;;;;;;25.60;20.63;;;18.60;99.90;;;;;;10498049;28;20307;-79
2021/06/07 01:16:39;;;;;;;26.60;21.73;;;18.60;99.90;;;;;;10496009;28;20204;-79
2021/06/07 01:21:42;;;;;;;25.53;22.43;;;18.60;99.90;;;;;;10497815;28;20244;-79
2021/06/07 01:26:45;;;;;;;27.27;22.37;;;18.50;99.90;;;;;;10491103;28;20660;-79
2021/06/07 01:31:47;;;;;;;26.63;21.27;;;18.50;99.90;;;;;;10483702;28;20350;-79
2021/06/07 01:36:48;;;;;;;22.70;19.20;;;18.50;99.90;;;;;;10488883;28;20193;-79
2021/06/07 01:41:51;;;;;;;22.83;20.43;;;18.50;99.90;;;;;;10488589;28;20246;-79
2021/06/07 01:46:53;;;;;;;26.90;21.30;;;18.50;99.90;;;;;;10483053;28;20201;-79
2021/06/07 01:51:55;;;;;;;33.13;21.30;;;18.50;99.90;;;;;;10495872;28;20303;-79
2021/06/07 01:56:57;;;;;;;24.97;20.90;;;18.50;99.90;;;;;;10488215;28;20215;-79
2021/06/07 02:01:59;;;;;;;26.67;21.27;;;18.50;99.90;;;;;;10488815;28;20303;-78
2021/06/07 02:07:01;;;;;;;26.47;22.17;;;18.50;99.90;;;;;;10487660;28;20199;-78
2021/06/07 02:12:05;;;;;;;31.50;23.30;;;18.50;99.90;;;;;;10483194;28;20266;-79
2021/06/07 02:17:07;;;;;;;31.47;22.90;;;18.50;99.90;;;;;;10489165;28;20582;-79
2021/06/07 02:22:08;;;;;;;31.27;22.27;;;18.50;99.90;;;;;;10481506;28;20235;-79
2021/06/07 02:27:11;;;;;;;31.57;22.80;;;18.50;99.90;;;;;;10487330;28;20212;-79
2021/06/07 02:32:13;;;;;;;27.50;23.07;;;18.50;99.90;;;;;;10490170;28;20285;-79
2021/06/07 02:37:15;;;;;;;26.27;20.80;;;18.50;99.90;;;;;;10489070;28;20199;-79
2021/06/07 02:42:18;;;;;;;27.80;22.00;;;18.40;99.90;;;;;;10488105;28;20237;-79
2021/06/07 02:47:19;;;;;;;28.30;22.40;;;18.40;99.90;;;;;;10474969;28;20323;-79
2021/06/07 02:52:21;;;;;;;30.47;24.00;;;18.40;99.90;;;;;;10502906;28;20661;-81
2021/06/07 02:57:24;;;;;;;29.50;23.97;;;18.40;99.90;;;;;;10498073;28;20196;-80
2021/06/07 03:02:25;;;;;;;34.20;23.00;;;18.40;99.90;;;;;;10495482;28;20246;-79
2021/06/07 03:07:27;;;;;;;31.90;22.97;;;18.40;99.90;;;;;;10481415;28;20283;-79
2021/06/07 03:12:30;;;;;;;29.70;24.20;;;18.40;99.90;;;;;;10477750;28;20235;-78
2021/06/07 03:17:32;;;;;;;29.43;23.30;;;18.40;99.90;;;;;;10492917;28;20228;-78
2021/06/07 03:22:33;;;;;;;29.30;23.60;;;18.40;99.90;;;;;;10492843;28;20319;-79
2021/06/07 03:27:38;;;;;;;28.07;22.77;;;18.40;99.90;;;;;;10492599;28;20239;-78
2021/06/07 03:32:40;;;;;;;32.90;23.50;;;18.40;99.90;;;;;;10480102;28;20224;-78
2021/06/07 03:37:42;;;;;;;31.43;24.30;;;18.40;99.90;;;;;;10497021;28;20203;-78
2021/06/07 03:42:46;;;;;;;33.30;25.10;;;18.40;99.90;;;;;;10494475;28;20289;-80
2021/06/07 03:47:49;;;;;;;29.37;23.47;;;18.40;99.90;;;;;;10489534;28;20196;-79
2021/06/07 03:52:50;;;;;;;31.37;23.80;;;18.40;99.90;;;;;;10503473;28;20278;-80
2021/06/07 03:57:56;;;;;;;22.97;18.10;;;18.40;99.90;;;;;;10505397;28;20270;-80
2021/06/07 04:02:58;;;;;;;31.93;23.33;;;18.40;99.90;;;;;;10485001;28;20212;-81
2021/06/07 04:08:01;;;;;;;32.13;24.57;;;18.40;99.90;;;;;;10484371;28;20247;-80
2021/06/07 04:13:04;;;;;;;32.17;24.10;;;18.40;99.90;;;;;;10491308;28;20229;-79
2021/06/07 04:18:07;;;;;;;36.63;24.70;;;18.30;99.90;;;;;;10467223;28;20209;-80
2021/06/07 04:23:08;;;;;;;32.63;25.17;;;18.30;99.90;;;;;;10464332;28;20286;-79
2021/06/07 04:28:11;;;;;;;33.33;24.47;;;18.30;99.90;;;;;;10494958;28;20212;-79
2021/06/07 04:33:13;;;;;;;35.67;24.63;;;18.30;99.90;;;;;;10491920;28;20248;-79
2021/06/07 04:38:15;;;;;;;30.80;24.20;;;18.30;99.90;;;;;;10500217;28;20228;-79
2021/06/07 04:43:18;;;;;;;32.30;24.67;;;18.40;99.90;;;;;;10497652;28;20805;-76
2021/06/07 04:48:19;;;;;;;30.63;24.50;;;18.40;99.90;;;;;;10487373;28;20240;-77
2021/06/07 04:53:21;;;;;;;33.03;24.57;;;18.30;99.90;;;;;;10450325;28;20614;-76
2021/06/07 04:58:27;;;;;;;33.73;24.87;;;18.30;99.90;;;;;;10482237;28;20205;-79
2021/06/07 05:03:30;;;;;;;34.43;26.33;;;18.30;99.90;;;;;;10484259;28;20583;-78
2021/06/07 05:08:32;;;;;;;32.97;26.07;;;18.40;99.90;;;;;;10464778;28;20707;-78
2021/06/07 05:13:35;;;;;;;35.70;26.27;;;18.40;99.90;;;;;;10490290;28;20224;-80
2021/06/07 05:18:37;;;;;;;31.10;24.93;;;18.40;99.90;;;;;;10466433;28;20197;-77
2021/06/07 05:23:39;;;;;;;34.17;24.70;;;18.40;99.90;;;;;;10484040;28;20700;-78
2021/06/07 05:28:42;;;;;;;34.20;25.30;;;18.40;99.90;;;;;;10478412;28;20652;-78
2021/06/07 05:33:43;;;;;;;35.20;25.80;;;18.40;99.90;;;;;;10487814;28;20261;-77
2021/06/07 05:38:45;;;;;;;30.93;24.20;;;18.40;99.90;;;;;;10496568;28;20200;-77
2021/06/07 05:43:48;;;;;;;32.33;24.43;;;18.30;99.90;;;;;;10495917;28;20270;-77
2021/06/07 05:48:49;;;;;;;29.90;23.53;;;18.30;99.90;;;;;;10496857;28;20196;-77
2021/06/07 05:53:51;;;;;;;30.50;23.67;;;18.30;99.90;;;;;;10483589;28;20302;-78
2021/06/07 05:58:57;;;;;;;31.80;23.53;;;18.30;99.90;;;;;;10496814;28;20204;-77
2021/06/07 06:03:59;;;;;;;32.63;25.60;;;18.40;99.90;;;;;;10479304;28;20430;-77
2021/06/07 06:09:01;;;;;;;29.20;21.50;;;18.40;99.90;;;;;;10497112;28;20676;-77
2021/06/07 06:14:04;;;;;;;33.83;22.97;;;18.40;99.90;;;;;;10498918;28;20298;-77
2021/06/07 06:19:05;;;;;;;30.67;22.47;;;18.40;99.90;;;;;;10496862;28;20245;-79
2021/06/07 06:24:08;;;;;;;29.07;22.10;;;18.40;99.90;;;;;;10498957;28;20232;-78
2021/06/07 06:29:13;;;;;;;25.50;20.60;;;18.40;99.90;;;;;;10497413;28;20275;-78
2021/06/07 06:34:14;;;;;;;26.90;21.47;;;18.40;99.90;;;;;;10491727;28;20262;-77
2021/06/07 06:39:16;;;;;;;24.40;19.10;;;18.50;99.90;;;;;;10498863;28;20287;-77
2021/06/07 06:44:19;;;;;;;26.43;18.03;;;18.50;99.90;;;;;;10498713;28;20318;-78
2021/06/07 06:49:27;;;;;;;23.93;18.77;;;18.50;99.90;;;;;;10499734;28;20248;-79
2021/06/07 06:54:29;;;;;;;23.50;17.47;;;18.50;99.90;;;;;;10500832;28;20715;-77
2021/06/07 06:59:32;;;;;;;23.17;18.03;;;18.60;99.90;;;;;;10479681;28;20330;-77
2021/06/07 07:04:34;;;;;;;25.70;19.07;;;18.60;99.90;;;;;;10486220;28;20600;-78
2021/06/07 07:09:36;;;;;;;20.33;17.00;;;18.50;99.90;;;;;;10493501;28;20307;-77
2021/06/07 07:14:39;;;;;;;29.53;18.27;;;18.60;99.90;;;;;;10498613;28;20223;-79
2021/06/07 07:19:41;;;;;;;27.40;19.70;;;18.50;99.90;;;;;;10496746;28;20231;-78
2021/06/07 07:24:45;;;;;;;21.67;17.40;;;18.50;99.90;;;;;;10500067;28;20318;-77
2021/06/07 07:29:48;;;;;;;24.27;18.67;;;18.50;99.90;;;;;;10502886;28;20227;-77
2021/06/07 07:34:50;;;;;;;22.63;18.20;;;18.30;99.90;;;;;;10495857;28;20303;-78
2021/06/07 07:39:51;;;;;;;20.83;16.17;;;18.20;99.90;;;;;;10495973;28;20277;-78
2021/06/07 07:44:54;;;;;;;23.20;18.90;;;18.20;99.90;;;;;;10495753;28;20216;-77
2021/06/07 07:49:57;;;;;;;19.67;16.30;;;18.10;99.90;;;;;;10495750;28;20247;-79
2021/06/07 07:54:58;;;;;;;24.10;18.13;;;18.10;99.90;;;;;;10488863;28;20594;-78
2021/06/07 08:00:01;;;;;;;20.50;16.07;;;18.10;99.90;;;;;;10494505;28;20196;-79
2021/06/07 08:05:04;;;;;;;18.30;15.73;;;18.10;99.90;;;;;;10480936;28;20350;-79
2021/06/07 08:10:07;;;;;;;22.73;17.20;;;18.10;99.90;;;;;;10503476;28;20273;-79
2021/06/07 08:15:11;;;;;;;15.60;13.93;;;18.20;99.90;;;;;;10495104;28;20287;-77
2021/06/07 08:20:17;;;;;;;14.90;12.30;;;18.30;99.90;;;;;;10483929;28;20291;-77
2021/06/07 08:25:20;;;;;;;13.40;12.00;;;18.40;99.90;;;;;;10487874;28;20798;-79
2021/06/07 08:30:24;;;;;;;13.33;11.77;;;18.50;99.90;;;;;;10486526;28;20247;-76
2021/06/07 08:35:25;;;;;;;13.17;11.60;;;18.50;99.90;;;;;;10492375;28;20266;-78
2021/06/07 08:40:27;;;;;;;11.83;10.73;;;18.60;99.90;;;;;;10493165;28;20299;-79
2021/06/07 08:45:30;;;;;;;12.03;10.73;;;18.60;99.90;;;;;;10479231;28;20231;-76
2021/06/07 08:50:33;;;;;;;14.17;12.00;;;18.70;99.90;;;;;;10498510;28;20346;-77
2021/06/07 08:55:36;;;;;;;15.27;11.90;;;18.70;99.90;;;;;;10462457;28;20255;-79
2021/06/07 09:00:40;;;;;;;15.83;13.60;;;18.80;99.90;;;;;;10475919;28;20266;-78
2021/06/07 09:05:43;;;;;;;16.83;14.37;;;18.80;99.90;;;;;;10472790;28;20225;-79
2021/06/07 09:10:48;;;;;;;14.57;13.07;;;18.90;99.90;;;;;;10490914;28;20231;-76
2021/06/07 09:15:52;;;;;;;17.47;15.50;;;18.90;99.90;;;;;;10476673;28;20204;-77
2021/06/07 09:21:00;;;;;;;17.40;14.17;;;18.90;99.90;;;;;;10497719;28;20295;-79
2021/06/07 09:26:02;;;;;;;17.70;14.80;;;19.00;99.90;;;;;;10486625;28;20207;-80
2021/06/07 09:31:08;;;;;;;18.00;15.60;;;19.00;99.90;;;;;;10477445;28;20350;-77
2021/06/07 09:36:25;;;;;;;17.77;15.97;;;19.10;99.90;;;;;;10490877;28;20707;-78
2021/06/07 09:41:28;;;;;;;17.80;16.00;;;19.20;99.90;;;;;;10476755;28;20224;-76
2021/06/07 09:46:32;;;;;;;16.83;15.07;;;19.20;99.90;;;;;;10495786;28;20275;-77
2021/06/07 09:51:34;;;;;;;18.60;16.30;;;19.20;99.90;;;;;;10496844;28;20228;-78
2021/06/07 09:56:49;;;;;;;18.60;16.60;;;19.30;99.90;;;;;;10477148;28;20200;-76
2021/06/07 10:01:52;;;;;;;16.10;14.50;;;19.30;99.90;;;;;;10466474;28;20223;-77
2021/06/07 10:07:07;;;;;;;15.87;14.17;;;19.40;99.90;;;;;;10494224;28;20227;-80
2021/06/07 10:12:24;;;;;;;15.90;14.30;;;19.40;99.90;;;;;;10488419;28;20227;-78
2021/06/07 10:17:27;;;;;;;17.07;15.30;;;19.50;99.90;;;;;;10472963;28;20230;-76
2021/06/07 10:22:29;;;;;;;17.10;15.30;;;19.70;99.90;;;;;;10475440;28;20228;-78
2021/06/07 10:27:30;;;;;;;15.90;14.30;;;19.90;99.90;;;;;;10491463;28;20211;-80
2021/06/07 10:32:34;;;;;;;15.73;14.13;;;20.00;99.90;;;;;;10481705;28;20228;-78
2021/06/07 10:37:36;;;;;;;18.00;16.10;;;20.10;99.90;;;;;;10479398;28;20215;-79
2021/06/07 10:42:53;;;;;;;17.80;15.10;;;20.10;99.90;;;;;;10486884;28;20227;-79
2021/06/07 10:47:57;;;;;;;15.63;14.03;;;20.10;99.90;;;;;;10483947;28;20683;-78
2021/06/07 10:53:01;;;;;;;16.50;14.80;;;20.10;99.90;;;;;;10499482;28;20596;-79
2021/06/07 10:58:05;;;;;;;15.40;13.87;;;20.10;99.90;;;;;;10500599;28;20263;-79
2021/06/07 11:03:20;;;;;;;15.60;14.10;;;20.10;99.90;;;;;;10496200;28;20225;-78
2021/06/07 11:08:25;;;;;;;14.97;13.50;;;20.10;99.90;;;;;;10477327;28;20641;-78
2021/06/07 11:13:31;;;;;;;18.23;14.70;;;20.10;99.90;;;;;;10485656;28;20343;-78
2021/06/07 11:18:35;;;;;;;15.93;14.47;;;20.00;99.90;;;;;;10476585;28;20189;-78
2021/06/07 11:30:09;;;;;;;16.67;15.03;;;20.00;99.90;;;;;;10479267;28;20200;-79
2021/06/07 11:35:43;;;;;;;17.37;15.70;;;20.00;99.90;;;;;;10477214;28;20576;-78
2021/06/07 11:40:45;;;;;;;17.63;15.93;;;20.00;99.90;;;;;;10476622;28;20705;-79
2021/06/07 11:45:46;;;;;;;15.77;14.27;;;19.90;99.90;;;;;;10479491;28;20258;-79
2021/06/07 11:50:49;;;;;;;16.60;14.90;;;19.90;99.90;;;;;;10486912;28;20595;-78
2021/06/07 11:55:54;;;;;;;17.13;15.53;;;20.00;99.90;;;;;;10512059;28;20200;-79
2021/06/07 12:00:57;;;;;;;17.90;16.20;;;20.00;99.90;;;;;;10492415;28;20243;-78
2021/06/07 12:06:01;;;;;;;17.17;15.57;;;20.00;99.90;;;;;;10486881;28;20528;-79
2021/06/07 12:11:05;;;;;;;16.37;14.77;;;19.90;99.90;;;;;;10488536;28;20243;-78
2021/06/07 12:16:09;;;;;;;18.13;16.43;;;19.90;99.90;;;;;;10491675;28;20196;-79
2021/06/07 12:21:14;;;;;;;16.83;15.13;;;19.90;99.90;;;;;;10490992;28;20237;-80
2021/06/07 12:32:06;;;;;;;17.93;16.13;;;20.10;99.90;;;;;;10491351;28;20644;-79
2021/06/07 12:37:26;;;;;;;17.07;15.37;;;20.20;99.90;;;;;;10489570;28;20196;-80
2021/06/07 12:42:33;;;;;;;17.37;15.70;;;20.30;99.90;;;;;;10489213;28;20238;-80
2021/06/07 12:47:35;;;;;;;18.10;16.40;;;20.30;99.90;;;;;;10486932;28;20208;-80
2021/06/07 12:52:39;;;;;;;18.53;16.73;;;20.30;99.90;;;;;;10487377;28;20240;-80
2021/06/07 12:57:40;;;;;;;18.53;16.73;;;20.50;99.90;;;;;;10487962;28;20211;-80
2021/06/07 13:02:42;;;;;;;17.43;15.73;;;20.70;99.90;;;;;;10483363;28;20637;-78
2021/06/07 13:08:11;;;;;;;15.63;14.00;;;20.80;99.90;;;;;;10487299;28;20208;-78
2021/06/07 13:13:20;;;;;;;16.97;15.20;;;20.70;99.90;;;;;;10500577;28;20338;-78
2021/06/07 13:18:22;;;;;;;16.37;14.83;;;20.50;99.90;;;;;;10500431;28;20551;-78
2021/06/07 13:23:38;;;;;;;15.53;13.93;;;20.40;99.90;;;;;;10482474;28;20255;-78
2021/06/07 13:28:40;;;;;;;16.33;14.83;;;20.50;99.90;;;;;;10500700;28;20200;-78
2021/06/07 13:33:42;;;;;;;16.50;13.67;;;20.50;99.90;;;;;;10499360;28;20307;-78
2021/06/07 13:38:45;;;;;;;15.43;14.03;;;20.50;99.90;;;;;;10479062;28;20228;-78
2021/06/07 13:43:55;;;;;;;16.30;14.60;;;20.60;99.90;;;;;;10477586;28;20271;-78
2021/06/07 13:49:12;;;;;;;16.80;15.10;;;20.70;99.90;;;;;;10478506;28;20197;-79
2021/06/07 13:54:15;;;;;;;16.27;14.70;;;20.70;99.90;;;;;;10478784;28;20220;-78
2021/06/07 13:59:20;;;;;;;15.03;13.63;;;21.00;99.90;;;;;;10474970;28;20208;-79
2021/06/07 14:04:22;;;;;;;16.93;15.33;;;21.20;99.90;;;;;;10477194;28;20217;-78
2021/06/07 14:09:30;;;;;;;16.13;14.53;;;21.20;99.90;;;;;;10460024;28;20283;-78
2021/06/07 14:14:31;;;;;;;16.23;14.83;;;21.10;99.90;;;;;;10476630;28;20631;-78
2021/06/07 14:19:33;;;;;;;16.90;15.23;;;21.10;99.90;;;;;;10471369;28;20599;-78
2021/06/07 14:24:39;;;;;;;16.97;15.07;;;21.00;99.90;;;;;;10477319;28;20220;-78
2021/06/07 14:29:42;;;;;;;17.47;15.73;;;21.00;99.90;;;;;;10474029;28;20660;-78
2021/06/07 14:34:43;;;;;;;19.67;17.67;;;20.90;99.90;;;;;;10474804;28;20213;-79
2021/06/07 14:39:46;;;;;;;21.67;19.57;;;20.80;99.90;;;;;;10480253;28;20228;-80
2021/06/07 14:44:48;;;;;;;20.67;18.57;;;20.80;99.90;;;;;;10475137;28;20355;-79
2021/06/07 14:49:50;;;;;;;20.10;18.10;;;21.00;99.90;;;;;;10476379;28;20242;-78
2021/06/07 14:54:53;;;;;;;19.00;17.10;;;21.30;99.90;;;;;;10476973;28;20216;-78
2021/06/07 14:59:54;;;;;;;20.17;18.27;;;21.30;99.90;;;;;;10467735;28;20675;-78
2021/06/07 15:04:56;;;;;;;20.50;18.30;;;21.20;99.90;;;;;;10476303;28;20217;-78
2021/06/07 15:09:59;;;;;;;19.83;17.63;;;21.00;99.90;;;;;;10478629;28;20212;-78
2021/06/07 15:15:01;;;;;;;19.53;17.53;;;21.00;99.90;;;;;;10480942;28;20220;-78
2021/06/07 15:20:04;;;;;;;20.70;18.50;;;21.10;99.90;;;;;;10472849;28;20208;-78
2021/06/07 15:25:09;;;;;;;20.60;18.40;;;21.10;99.90;;;;;;10475881;28;20773;-78
2021/06/07 15:30:13;;;;;;;18.17;16.30;;;21.10;99.90;;;;;;10484044;28;20259;-78
2021/06/07 15:35:37;;;;;;;21.40;19.20;;;21.10;99.90;;;;;;10500211;28;20556;-78
2021/06/07 15:40:40;;;;;;;20.60;18.40;;;21.00;99.90;;;;;;10486187;28;20225;-78
2021/06/07 15:45:42;;;;;;;20.93;18.60;;;21.00;99.90;;;;;;10500157;28;20610;-79
2021/06/07 15:50:44;;;;;;;24.23;20.90;;;20.90;99.90;;;;;;10503751;28;20239;-79
2021/06/07 15:55:47;;;;;;;21.00;18.80;;;20.90;99.90;;;;;;10503477;28;20199;-79
2021/06/07 16:00:49;;;;;;;21.33;19.03;;;20.90;99.90;;;;;;10503806;28;20213;-79
2021/06/07 16:05:51;;;;;;;22.30;19.90;;;20.80;99.90;;;;;;10502909;28;20252;-79
2021/06/07 16:10:55;;;;;;;24.27;20.13;;;20.70;99.90;;;;;;10505007;28;20696;-79
2021/06/07 16:15:59;;;;;;;23.30;20.50;;;20.60;99.90;;;;;;10504377;28;20680;-80
2021/06/07 16:21:13;;;;;;;24.10;21.53;;;20.50;99.90;;;;;;10516954;22;20220;-81
2021/06/07 16:26:17;;;;;;;22.87;20.40;;;20.40;99.90;;;;;;10463180;28;20205;-81
2021/06/07 16:31:21;;;;;;;24.17;21.07;;;20.40;99.90;;;;;;10434735;28;20229;-81
2021/06/07 16:36:25;;;;;;;28.67;23.77;;;20.30;99.90;;;;;;10437596;28;20656;-81
2021/06/07 16:41:30;;;;;;;27.67;23.70;;;20.40;99.90;;;;;;10450388;28;20220;-81
2021/06/07 16:46:32;;;;;;;28.70;24.90;;;20.30;99.90;;;;;;10444447;28;20204;-81
2021/06/07 16:51:34;;;;;;;34.10;27.40;;;20.30;99.90;;;;;;10437697;28;20260;-81
2021/06/07 16:56:38;;;;;;;31.53;25.80;;;20.40;99.90;;;;;;10470851;28;20197;-81
2021/06/07 17:01:40;;;;;;;28.33;23.70;;;20.50;99.90;;;;;;10426347;28;20217;-81
2021/06/07 17:06:42;;;;;;;29.63;24.67;;;20.50;99.90;;;;;;10455414;28;20197;-80
2021/06/07 17:11:45;;;;;;;28.23;23.83;;;20.50;99.90;;;;;;10455668;28;20221;-80
2021/06/07 17:16:48;;;;;;;30.20;25.03;;;20.50;99.90;;;;;;10446190;28;20619;-80
2021/06/07 17:21:50;;;;;;;32.07;25.87;;;20.40;99.90;;;;;;10414621;28;20248;-80
2021/06/07 17:26:53;;;;;;;30.40;25.60;;;20.40;99.90;;;;;;10445119;28;20221;-80
2021/06/07 17:31:54;;;;;;;32.40;27.47;;;20.30;99.90;;;;;;10412275;28;20260;-80
2021/06/07 17:36:56;;;;;;;28.80;25.37;;;20.30;99.90;;;;;;10447129;28;20240;-80
2021/06/07 17:41:59;;;;;;;34.13;27.13;;;20.20;99.90;;;;;;10437049;28;20232;-80
2021/06/07 17:47:01;;;;;;;29.97;26.20;;;20.10;99.90;;;;;;10456279;28;20208;-80
2021/06/07 17:52:03;;;;;;;33.43;28.40;;;20.00;99.90;;;;;;10451279;28;20221;-80
2021/06/07 17:57:07;;;;;;;34.40;28.47;;;20.00;99.90;;;;;;10440595;28;20287;-80
2021/06/07 18:02:09;;;;;;;34.33;28.87;;;19.90;99.90;;;;;;10446413;28;20696;-80
2021/06/07 18:07:10;;;;;;;30.57;26.00;;;19.90;99.90;;;;;;10458932;28;20205;-80
2021/06/07 18:12:14;;;;;;;39.13;31.50;;;19.80;99.90;;;;;;10422340;28;20236;-80
2021/06/07 18:17:16;;;;;;;29.90;26.70;;;19.80;99.90;;;;;;10397963;28;20209;-80
2021/06/07 18:22:17;;;;;;;35.37;29.07;;;19.80;99.90;;;;;;10398735;28;20228;-80
2021/06/07 18:27:20;;;;;;;33.87;29.60;;;19.80;99.90;;;;;;10412469;28;20239;-80
2021/06/07 18:32:22;;;;;;;40.63;34.10;;;19.80;99.90;;;;;;10429206;28;20861;-80
2021/06/07 18:37:24;;;;;;;37.53;31.10;;;19.80;99.90;;;;;;10444870;28;20233;-80
2021/06/07 18:42:27;;;;;;;38.10;31.30;;;19.70;99.90;;;;;;10439727;28;20689;-80
2021/06/07 18:47:29;;;;;;;35.23;31.43;;;19.70;99.90;;;;;;10450221;28;20229;-80
2021/06/07 18:52:30;;;;;;;43.77;34.03;;;19.70;99.90;;;;;;10442102;28;20253;-80
2021/06/07 18:57:33;;;;;;;43.43;34.00;;;19.70;99.90;;;;;;10418380;28;20198;-80
2021/06/07 19:02:35;;;;;;;40.83;31.33;;;19.70;99.90;;;;;;10410196;28;20279;-80
2021/06/07 19:07:37;;;;;;;38.10;32.30;;;19.60;99.90;;;;;;10416208;28;20205;-80
2021/06/07 19:12:40;;;;;;;42.17;33.77;;;19.60;99.90;;;;;;10434793;28;20303;-80
2021/06/07 19:17:43;;;;;;;35.90;32.00;;;19.60;99.90;;;;;;10455967;28;20586;-80
2021/06/07 19:22:45;;;;;;;45.70;34.77;;;19.60;99.90;;;;;;10419861;28;20237;-80
2021/06/07 19:27:47;;;;;;;48.00;36.10;;;19.60;99.90;;;;;;10415221;28;20211;-80
2021/06/07 19:32:50;;;;;;;39.27;34.03;;;19.60;99.90;;;;;;10403505;28;20260;-80
2021/06/07 19:37:52;;;;;;;39.43;34.33;;;19.60;99.90;;;;;;10434588;28;20197;-80
2021/06/07 19:42:55;;;;;;;41.77;34.43;;;19.50;99.90;;;;;;10454468;28;20244;-80
2021/06/07 19:47:57;;;;;;;44.20;36.13;;;19.50;99.90;;;;;;10452162;28;20292;-80
2021/06/07 19:53:00;;;;;;;41.40;35.13;;;19.50;99.90;;;;;;10409343;28;20232;-80
2021/06/07 19:58:03;;;;;;;44.80;35.23;;;19.40;99.90;;;;;;10445060;28;20291;-80
2021/06/07 20:03:05;;;;;;;45.67;35.30;;;19.50;99.90;;;;;;10445466;28;20217;-80
2021/06/07 20:08:06;;;;;;;39.50;35.20;;;19.40;99.90;;;;;;10426632;28;20212;-80
2021/06/07 20:13:09;;;;;;;44.37;36.77;;;19.30;99.90;;;;;;10436940;28;20308;-80
2021/06/07 20:18:11;;;;;;;45.73;37.33;;;19.10;99.90;;;;;;10410307;28;20209;-80
2021/06/07 20:23:13;;;;;;;45.60;36.40;;;19.00;99.90;;;;;;10431367;28;20254;-80
2021/06/07 20:28:16;;;;;;;43.07;34.50;;;19.00;99.90;;;;;;10417038;28;20280;-80
2021/06/07 20:33:19;;;;;;;49.20;40.60;;;18.90;99.90;;;;;;10434838;28;20300;-80
2021/06/07 20:38:21;;;;;;;51.97;40.10;;;18.80;99.90;;;;;;10428154;28;20205;-80
2021/06/07 20:43:24;;;;;;;50.50;41.23;;;18.80;99.90;;;;;;10431603;28;20214;-80
2021/06/07 20:48:26;;;;;;;47.27;38.40;;;18.70;99.90;;;;;;10412324;28;20293;-80
2021/06/07 20:53:27;;;;;;;51.83;39.53;;;18.70;99.90;;;;;;10445230;28;20218;-80
2021/06/07 20:58:31;;;;;;;53.93;38.87;;;18.70;99.90;;;;;;10409599;28;20238;-80
2021/06/07 21:03:33;;;;;;;45.37;36.80;;;18.70;99.90;;;;;;10436074;28;20229;-80
2021/06/07 21:08:34;;;;;;;51.20;39.50;;;18.70;99.90;;;;;;10448421;28;20196;-80
2021/06/07 21:13:37;;;;;;;51.53;40.67;;;18.70;99.90;;;;;;10402279;28;20249;-80
2021/06/07 21:18:39;;;;;;;55.43;41.70;;;18.70;99.90;;;;;;10433619;28;20619;-80
2021/06/07 21:23:41;;;;;;;54.37;41.03;;;18.70;99.90;;;;;;10419420;28;20296;-80
2021/06/07 21:28:44;;;;;;;54.00;41.13;;;18.70;99.90;;;;;;10440931;28;20255;-80
2021/06/07 21:33:45;;;;;;;50.97;40.97;;;18.70;99.90;;;;;;10425697;28;20225;-81
2021/06/07 21:38:49;;;;;;;50.17;40.40;;;18.70;99.90;;;;;;10408765;28;20201;-80
2021/06/07 21:43:53;;;;;;;45.97;37.87;;;18.70;99.90;;;;;;10423511;28;20304;-80
2021/06/07 21:48:55;;;;;;;48.00;39.90;;;18.80;99.90;;;;;;10425925;28;20211;-80
2021/06/07 21:53:56;;;;;;;50.10;39.50;;;18.80;99.90;;;;;;10418846;28;20663;-80
2021/06/07 21:59:00;;;;;;;44.53;38.03;;;18.80;99.90;;;;;;10426422;28;20208;-80
2021/06/07 22:04:01;;;;;;;54.50;38.77;;;18.80;99.90;;;;;;10432053;28;20257;-80
2021/06/07 22:09:05;;;;;;;52.90;38.80;;;18.80;99.90;;;;;;10394232;28;20281;-80
2021/06/07 22:14:08;;;;;;;50.33;37.80;;;18.90;99.90;;;;;;10413405;28;20290;-80
2021/06/07 22:19:10;;;;;;;47.40;37.70;;;18.80;99.90;;;;;;10430709;28;20236;-80
2021/06/07 22:24:12;;;;;;;51.23;40.50;;;18.80;99.90;;;;;;10492260;22;20228;-80
2021/06/07 22:29:14;;;;;;;50.10;39.80;;;18.90;99.90;;;;;;10474822;28;20652;-78
2021/06/07 22:34:16;;;;;;;45.80;37.30;;;18.90;99.90;;;;;;10473326;28;20256;-79
2021/06/07 22:39:18;;;;;;;49.33;38.07;;;18.80;99.90;;;;;;10484581;28;20260;-79
2021/06/07 22:44:21;;;;;;;42.63;35.77;;;18.90;99.90;;;;;;10498690;28;20269;-80
2021/06/07 22:49:22;;;;;;;42.10;35.97;;;18.80;99.90;;;;;;10492597;28;20204;-80
2021/06/07 22:54:24;;;;;;;42.80;37.97;;;18.90;99.90;;;;;;10497365;28;20229;-77
2021/06/07 22:59:27;;;;;;;38.67;34.50;;;18.90;99.90;;;;;;10497680;28;20200;-78
2021/06/07 23:04:29;;;;;;;44.70;35.93;;;18.90;99.90;;;;;;10499071;28;20216;-79
2021/06/07 23:09:30;;;;;;;40.87;34.40;;;18.80;99.90;;;;;;10489603;28;20200;-78
2021/06/07 23:14:33;;;;;;;42.37;35.83;;;18.90;99.90;;;;;;10497635;28;20236;-78
2021/06/07 23:19:35;;;;;;;39.83;34.70;;;18.80;99.90;;;;;;10496976;28;20201;-79
2021/06/07 23:24:37;;;;;;;40.50;36.00;;;18.90;99.90;;;;;;10498186;28;20227;-79
2021/06/07 23:29:40;;;;;;;37.13;32.47;;;18.90;99.90;;;;;;10493070;28;20228;-78
2021/06/07 23:34:42;;;;;;;38.00;33.97;;;18.90;99.90;;;;;;10495040;28;20270;-78
2021/06/07 23:39:44;;;;;;;33.97;30.27;;;18.90;99.90;;;;;;10496550;28;20200;-78
2021/06/07 23:44:47;;;;;;;36.80;32.87;;;18.90;99.90;;;;;;10496257;28;20300;-77
2021/06/07 23:49:49;;;;;;;35.30;31.40;;;19.00;99.90;;;;;;10496170;28;20204;-78
2021/06/07 23:54:51;;;;;;;36.43;32.60;;;18.90;99.90;;;;;;10499214;28;20228;-78
2021/06/07 23:59:54;;;;;;;34.27;30.13;;;19.00;99.90;;;;;;10503064;28;20254;-78
